createdAt,value
2023-01-13T00:00:28.077Z,6.75
2023-01-13T00:04:29.647Z,6.75
2023-01-13T00:08:31.588Z,6.85
2023-01-13T00:12:33.136Z,6.83
2023-01-13T00:16:36.070Z,6.93
2023-01-13T00:20:37.590Z,6.83
2023-01-13T00:24:39.137Z,6.88
2023-01-13T00:28:40.678Z,6.91
2023-01-13T00:32:43.587Z,7.10
2023-01-13T00:36:45.141Z,7.19
2023-01-13T00:40:54.842Z,7.13
2023-01-13T00:44:56.412Z,7.17
2023-01-13T00:48:59.317Z,7.26
2023-01-13T00:53:01.013Z,7.26
2023-01-13T00:57:02.629Z,7.19
2023-01-13T01:01:05.459Z,7.24
2023-01-13T01:05:09.043Z,7.21
2023-01-13T01:09:12.915Z,7.31
2023-01-13T01:13:14.486Z,7.36
2023-01-13T01:17:16.016Z,7.34
2023-01-13T01:21:19.463Z,7.33
2023-01-13T01:25:21.030Z,7.33
2023-01-13T01:29:22.562Z,7.35
2023-01-13T01:33:24.386Z,7.38
2023-01-13T01:37:27.309Z,7.42
2023-01-13T01:41:30.297Z,7.29
2023-01-13T01:45:32.031Z,7.39
2023-01-13T01:49:35.164Z,7.34
2023-01-13T01:53:39.182Z,7.35
2023-01-13T01:57:43.095Z,7.20
2023-01-13T02:01:45.360Z,7.29
2023-01-13T02:05:46.994Z,7.13
2023-01-13T02:09:50.035Z,7.12
2023-01-13T02:13:51.686Z,7.14
2023-01-13T02:18:00.343Z,7.31
2023-01-13T02:22:13.792Z,7.20
2023-01-13T02:26:32.578Z,7.31
2023-01-13T02:30:40.859Z,7.30
2023-01-13T02:34:46.742Z,7.23
2023-01-13T02:38:50.825Z,7.37
2023-01-13T02:42:55.826Z,7.34
2023-01-13T02:47:02.161Z,7.39
2023-01-13T02:51:05.818Z,7.36
2023-01-13T02:55:10.581Z,7.34
2023-01-13T02:59:12.577Z,7.46
2023-01-13T03:03:15.332Z,7.51
2023-01-13T03:07:26.261Z,7.56
2023-01-13T03:11:33.311Z,7.53
2023-01-13T03:15:41.863Z,7.44
2023-01-13T03:19:49.978Z,7.45
2023-01-13T03:23:53.732Z,7.53
2023-01-13T03:27:57.517Z,7.48
2023-01-13T03:32:01.458Z,7.60
2023-01-13T03:36:07.999Z,7.57
2023-01-13T03:40:12.275Z,7.52
2023-01-13T03:44:17.140Z,7.47
2023-01-13T03:48:20.214Z,7.50
2023-01-13T03:52:26.216Z,7.54
2023-01-13T03:56:29.875Z,7.68
2023-01-13T04:00:32.368Z,7.72
2023-01-13T04:04:35.620Z,7.71
2023-01-13T04:08:40.081Z,7.66
2023-01-13T04:12:44.914Z,7.70
2023-01-13T04:16:47.481Z,7.76
2023-01-13T04:20:50.198Z,7.71
2023-01-13T04:24:52.922Z,7.72
2023-01-13T04:28:54.295Z,7.86
2023-01-13T04:32:55.741Z,7.92
2023-01-13T04:36:57.138Z,7.82
2023-01-13T04:40:59.887Z,7.79
2023-01-13T04:45:01.280Z,7.85
2023-01-13T04:49:02.746Z,7.97
2023-01-13T04:53:04.130Z,7.95
2023-01-13T04:57:06.950Z,8.02
2023-01-13T05:01:08.534Z,7.87
2023-01-13T05:05:10.028Z,8.01
2023-01-13T05:09:11.508Z,8.03
2023-01-13T05:13:14.272Z,7.96
2023-01-13T05:17:18.724Z,8.04
2023-01-13T05:21:20.114Z,8.00
2023-01-13T05:25:21.620Z,7.98
2023-01-13T05:29:24.403Z,8.07
2023-01-13T05:33:25.813Z,7.96
2023-01-13T05:37:27.246Z,8.02
2023-01-13T05:41:28.606Z,8.02
2023-01-13T05:45:31.706Z,8.06
2023-01-13T05:49:33.205Z,7.99
2023-01-13T05:53:34.817Z,8.03
2023-01-13T05:57:36.280Z,8.17
2023-01-13T06:01:39.034Z,8.29
2023-01-13T06:05:40.425Z,8.30
2023-01-13T06:09:41.866Z,8.25
2023-01-13T06:13:43.259Z,8.33
2023-01-13T06:17:46.088Z,8.34
2023-01-13T06:21:47.462Z,8.30
2023-01-13T06:25:52.730Z,8.36
2023-01-13T06:29:54.107Z,8.37
2023-01-13T06:33:59.388Z,8.30
2023-01-13T06:38:02.814Z,8.41
2023-01-13T06:42:04.400Z,8.37
2023-01-13T06:46:06.016Z,8.34
2023-01-13T06:50:09.667Z,8.24
2023-01-13T06:54:11.074Z,8.21
2023-01-13T06:58:12.532Z,8.23
2023-01-13T07:02:14.061Z,8.32
2023-01-13T07:06:16.857Z,8.42
2023-01-13T07:10:18.310Z,8.40
2023-01-13T07:14:19.730Z,8.35
2023-01-13T07:18:21.143Z,8.38
2023-01-13T07:22:23.914Z,8.33
2023-01-13T07:26:25.302Z,8.40
2023-01-13T07:30:26.776Z,8.43
2023-01-13T07:34:28.160Z,8.41
2023-01-13T07:38:31.477Z,8.52
2023-01-13T07:42:32.841Z,8.46
2023-01-13T07:46:34.201Z,8.58
2023-01-13T07:50:35.602Z,8.63
2023-01-13T07:54:40.928Z,8.62
2023-01-13T07:58:42.564Z,8.68
2023-01-13T08:02:43.989Z,8.65
2023-01-13T08:06:45.400Z,8.61
2023-01-13T08:10:48.143Z,8.64
2023-01-13T08:14:49.525Z,8.68
2023-01-13T08:18:50.926Z,8.71
2023-01-13T08:22:55.841Z,8.82
2023-01-13T08:26:58.590Z,8.87
2023-01-13T08:31:00.671Z,8.95
2023-01-13T08:35:02.114Z,8.86
2023-01-13T08:39:03.571Z,9.03
2023-01-13T08:43:06.320Z,9.03
2023-01-13T08:47:07.776Z,9.10
2023-01-13T08:51:09.703Z,9.05
2023-01-13T08:55:11.383Z,9.04
2023-01-13T08:59:14.609Z,9.12
2023-01-13T09:03:15.989Z,9.12
2023-01-13T09:07:17.774Z,9.18
2023-01-13T09:11:20.599Z,9.08
2023-01-13T09:15:23.492Z,9.09
2023-01-13T09:19:25.201Z,9.19
2023-01-13T09:23:26.609Z,9.26
2023-01-13T09:27:27.987Z,9.26
2023-01-13T09:31:30.804Z,9.33
2023-01-13T09:35:32.224Z,9.33
2023-01-13T09:39:33.985Z,9.28
2023-01-13T09:43:38.176Z,9.36
2023-01-13T09:47:44.559Z,9.32
2023-01-13T09:51:49.156Z,9.34
2023-01-13T09:55:50.559Z,9.41
2023-01-13T09:59:52.038Z,9.50
2023-01-13T10:03:54.793Z,9.49
2023-01-13T10:07:58.710Z,9.50
2023-01-13T10:12:01.329Z,9.53
2023-01-13T10:16:08.049Z,9.67
2023-01-13T10:20:17.010Z,9.79
2023-01-13T10:24:22.918Z,10.02
2023-01-13T10:28:24.323Z,9.99
2023-01-13T10:32:25.711Z,9.95
2023-01-13T10:36:28.448Z,10.08
2023-01-13T10:40:29.847Z,10.14
2023-01-13T10:44:31.230Z,10.27
2023-01-13T10:48:37.455Z,10.33
2023-01-13T10:52:41.403Z,10.34
2023-01-13T10:56:43.706Z,10.35
2023-01-13T11:00:45.254Z,10.38
2023-01-13T11:04:58.141Z,10.40
2023-01-13T11:09:00.959Z,10.31
2023-01-13T11:13:05.310Z,10.34
2023-01-13T11:17:14.663Z,10.31
2023-01-13T11:21:21.224Z,10.20
2023-01-13T11:25:26.373Z,10.02
2023-01-13T11:29:30.119Z,9.90
2023-01-13T11:33:37.942Z,9.73
2023-01-13T11:37:41.865Z,9.62
2023-01-13T11:41:46.640Z,9.60
2023-01-13T11:45:50.625Z,9.46
2023-01-13T11:49:52.207Z,9.16
2023-01-13T11:54:04.283Z,8.94
2023-01-13T11:58:13.871Z,8.86
2023-01-13T12:02:21.932Z,8.75
2023-01-13T12:06:29.292Z,8.78
2023-01-13T12:10:41.267Z,8.80
2023-01-13T12:14:51.307Z,8.78
2023-01-13T12:19:00.822Z,8.71
2023-01-13T12:23:03.915Z,8.70
2023-01-13T12:27:10.623Z,8.88
2023-01-13T12:31:13.676Z,8.98
2023-01-13T12:35:23.038Z,9.12
2023-01-13T12:39:28.797Z,9.13
2023-01-13T12:43:31.236Z,9.41
2023-01-13T12:47:35.290Z,9.18
2023-01-13T12:51:37.811Z,9.18
2023-01-13T12:55:39.179Z,9.16
2023-01-13T12:59:40.629Z,9.03
2023-01-13T13:04:03.382Z,8.96
2023-01-13T13:08:07.733Z,8.78
2023-01-13T13:12:24.001Z,8.66
2023-01-13T13:16:35.708Z,8.54
2023-01-13T13:20:55.512Z,8.51
2023-01-13T13:25:11.771Z,8.52
2023-01-13T13:29:36.928Z,8.55
2023-01-13T13:33:47.877Z,8.46
2023-01-13T13:37:55.513Z,8.50
2023-01-13T13:42:02.405Z,8.60
2023-01-13T13:46:16.637Z,8.75
2023-01-13T13:50:19.428Z,8.92
2023-01-13T13:54:22.506Z,9.11
2023-01-13T13:58:24.312Z,9.07
2023-01-13T14:02:28.206Z,8.88
2023-01-13T14:06:29.594Z,8.79
2023-01-13T14:10:33.664Z,8.71
2023-01-13T14:14:35.116Z,8.58
2023-01-13T14:18:42.509Z,8.63
2023-01-13T14:22:46.025Z,8.64
2023-01-13T14:26:49.133Z,8.54
2023-01-13T14:30:51.213Z,8.39
2023-01-13T14:34:52.710Z,8.49
2023-01-13T14:39:08.948Z,8.41
2023-01-13T14:43:12.982Z,8.28
2023-01-13T14:47:19.430Z,8.20
2023-01-13T14:51:22.622Z,8.12
2023-01-13T14:55:27.895Z,8.02
2023-01-13T14:59:41.091Z,8.16
2023-01-13T15:03:42.645Z,8.23
2023-01-13T15:07:48.660Z,8.15
2023-01-13T15:11:50.034Z,8.14
2023-01-13T15:15:53.727Z,8.05
2023-01-13T15:19:55.163Z,8.01
2023-01-13T15:23:56.505Z,7.96
2023-01-13T15:27:57.939Z,7.87
2023-01-13T15:32:00.652Z,7.83
2023-01-13T15:36:02.046Z,7.69
2023-01-13T15:40:03.694Z,7.67
2023-01-13T15:44:05.175Z,7.59
2023-01-13T15:48:07.899Z,7.58
2023-01-13T15:52:16.887Z,7.57
2023-01-13T15:56:22.090Z,7.44
2023-01-13T16:00:23.601Z,7.34
2023-01-13T16:04:28.167Z,7.48
2023-01-13T16:08:29.544Z,7.59
2023-01-13T16:12:30.992Z,7.62
2023-01-13T16:16:32.521Z,7.60
2023-01-13T16:20:35.329Z,7.58
2023-01-13T16:24:36.742Z,7.41
2023-01-13T16:28:38.120Z,7.29
2023-01-13T16:32:39.516Z,7.14
2023-01-13T16:36:42.263Z,7.07
2023-01-13T16:40:43.951Z,7.00
2023-01-13T16:44:45.305Z,7.03
2023-01-13T16:48:46.804Z,7.02
2023-01-13T16:52:49.565Z,6.95
2023-01-13T16:56:51.189Z,7.01
2023-01-13T17:00:52.638Z,7.05
2023-01-13T17:04:54.000Z,7.03
2023-01-13T17:09:02.605Z,7.00
2023-01-13T17:13:14.720Z,6.97
2023-01-13T17:17:20.356Z,6.99
2023-01-13T17:21:21.761Z,7.01
2023-01-13T17:25:24.551Z,6.99
2023-01-13T17:29:25.955Z,7.07
2023-01-13T17:33:27.341Z,7.05
2023-01-13T17:37:28.745Z,7.06
2023-01-13T17:41:31.524Z,7.11
2023-01-13T17:45:32.923Z,7.13
2023-01-13T17:49:34.375Z,7.07
2023-01-13T17:53:35.767Z,7.06
2023-01-13T17:57:38.529Z,7.12
2023-01-13T18:01:40.436Z,7.12
2023-01-13T18:05:41.998Z,7.10
2023-01-13T18:09:43.437Z,7.01
2023-01-13T18:13:46.298Z,7.05
2023-01-13T18:17:47.722Z,7.11
2023-01-13T18:21:49.124Z,7.14
2023-01-13T18:25:50.491Z,7.09
2023-01-13T18:29:54.229Z,7.07
2023-01-13T18:33:55.742Z,6.91
2023-01-13T18:37:57.333Z,6.72
2023-01-13T18:41:58.710Z,6.61
2023-01-13T18:46:01.504Z,6.49
2023-01-13T18:50:02.949Z,6.39
2023-01-13T18:54:04.443Z,6.34
2023-01-13T18:58:05.845Z,6.30
2023-01-13T19:02:13.774Z,6.25
2023-01-13T19:06:15.176Z,6.12
2023-01-13T19:10:17.050Z,6.06
2023-01-13T19:14:19.125Z,5.97
2023-01-13T19:18:22.063Z,5.94
2023-01-13T19:22:24.937Z,5.85
2023-01-13T19:26:26.309Z,5.73
2023-01-13T19:30:27.757Z,5.64
2023-01-13T19:34:30.492Z,5.52
2023-01-13T19:38:32.113Z,5.35
2023-01-13T19:42:33.485Z,5.37
2023-01-13T19:46:34.912Z,5.38
2023-01-13T19:50:38.324Z,5.35
2023-01-13T19:54:39.710Z,5.34
2023-01-13T19:58:41.114Z,5.37
2023-01-13T20:02:42.525Z,5.54
2023-01-13T20:06:45.281Z,5.69
2023-01-13T20:10:47.748Z,5.73
2023-01-13T20:14:49.144Z,5.64
2023-01-13T20:18:50.825Z,5.74
2023-01-13T20:22:53.571Z,5.70
2023-01-13T20:26:55.263Z,5.70
2023-01-13T20:30:56.620Z,5.73
2023-01-13T20:34:57.980Z,5.78
2023-01-13T20:39:01.542Z,5.78
2023-01-13T20:43:02.912Z,5.67
2023-01-13T20:47:04.382Z,5.63
2023-01-13T20:51:05.824Z,5.69
2023-01-13T20:55:09.309Z,5.74
2023-01-13T20:59:11.115Z,5.84
2023-01-13T21:03:13.591Z,5.96
2023-01-13T21:07:16.394Z,5.87
2023-01-13T21:11:19.137Z,5.83
2023-01-13T21:15:20.630Z,5.86
2023-01-13T21:19:22.017Z,5.91
2023-01-13T21:23:23.392Z,5.89
2023-01-13T21:27:26.127Z,5.79
2023-01-13T21:31:27.873Z,5.80
2023-01-13T21:35:29.324Z,5.81
2023-01-13T21:39:30.676Z,5.73
2023-01-13T21:43:33.763Z,5.64
2023-01-13T21:47:35.128Z,5.60
2023-01-13T21:51:36.581Z,5.67
2023-01-13T21:55:37.961Z,5.63
2023-01-13T21:59:40.668Z,5.50
2023-01-13T22:03:42.072Z,5.45
2023-01-13T22:07:43.431Z,5.52
2023-01-13T22:11:44.842Z,5.55
2023-01-13T22:15:47.606Z,5.49
2023-01-13T22:19:49.511Z,5.59
2023-01-13T22:23:50.923Z,5.60
2023-01-13T22:27:52.351Z,5.62
2023-01-13T22:31:55.158Z,5.63
2023-01-13T22:35:56.561Z,5.60
2023-01-13T22:39:57.921Z,5.76
2023-01-13T22:43:59.284Z,5.68
2023-01-13T22:48:02.050Z,5.62
2023-01-13T22:52:03.616Z,5.51
2023-01-13T22:56:05.179Z,5.40
2023-01-13T23:00:07.157Z,5.41
2023-01-13T23:04:11.214Z,5.52
2023-01-13T23:08:12.723Z,5.51
2023-01-13T23:12:14.130Z,5.47
2023-01-13T23:16:16.334Z,5.47
2023-01-13T23:20:19.079Z,5.49
2023-01-13T23:24:20.448Z,5.54
2023-01-13T23:28:22.158Z,5.52
2023-01-13T23:32:23.546Z,5.53
2023-01-13T23:36:26.785Z,5.46
2023-01-13T23:40:28.142Z,5.46
2023-01-13T23:44:29.588Z,5.54
2023-01-13T23:48:31.265Z,5.52
2023-01-13T23:52:34.028Z,5.56
2023-01-13T23:56:35.426Z,5.64
